Patmos, Greece
Current Conditions -  °F | °C
As of 11:50 AM on Friday 31 Oct 2014 (Local Time) from LGSM Reporting Station
Few Clouds Few Clouds  
Wind Chill: 64°   Ceiling: Unl
Heat Index: 64°   Visibility: 6mi
Dew Point: 50°   Wind: 16mph
Humidity: 59%   Direction: 10°N
Pressure: 29.97"   Gusts: NA
Location:  37.31°N, 26.54°E
Report Text: LGSM 310950Z 01014KT 9999 FEW018 18/10 Q1015
Loading
Personal Weather Stations






























Interactive Weather Map
Tropical Storm Tracking
New forecast layout! Learn more

10-Day Weather Forecast

Advertisements
Track Severe Weather on mobile